sensor_id;sensor_type;location;lat;lon;timestamp;P1;durP1;ratioP1;P2;durP2;ratioP2
40459;SDS011;26164;51.138;16.952;2023-01-19T06:31:37;15.80;;;9.52;;
40459;SDS011;26164;51.138;16.952;2023-01-19T06:34:11;17.23;;;9.88;;
40459;SDS011;26164;51.138;16.952;2023-01-19T06:40:09;11.95;;;7.20;;
40459;SDS011;26164;51.138;16.952;2023-01-19T06:42:37;17.40;;;10.65;;
40459;SDS011;26164;51.138;16.952;2023-01-19T06:45:48;19.65;;;10.70;;
40459;SDS011;26164;51.138;16.952;2023-01-19T06:48:26;18.70;;;11.35;;
40459;SDS011;26164;51.138;16.952;2023-01-19T06:51:31;20.05;;;11.68;;
40459;SDS011;26164;51.138;16.952;2023-01-19T06:54:15;21.95;;;12.48;;
40459;SDS011;26164;51.138;16.952;2023-01-19T06:56:46;15.00;;;8.52;;
40459;SDS011;26164;51.138;16.952;2023-01-19T06:59:26;14.98;;;8.82;;
40459;SDS011;26164;51.138;16.952;2023-01-19T07:02:16;14.57;;;9.27;;
40459;SDS011;26164;51.138;16.952;2023-01-19T07:04:46;16.20;;;9.05;;
40459;SDS011;26164;51.138;16.952;2023-01-19T07:07:24;15.02;;;7.40;;
40459;SDS011;26164;51.138;16.952;2023-01-19T07:10:03;17.77;;;8.65;;
40459;SDS011;26164;51.138;16.952;2023-01-19T07:12:36;14.00;;;8.90;;
40459;SDS011;26164;51.138;16.952;2023-01-19T07:15:04;15.05;;;8.60;;
40459;SDS011;26164;51.138;16.952;2023-01-19T07:17:30;18.98;;;9.75;;
40459;SDS011;26164;51.138;16.952;2023-01-19T07:19:56;18.88;;;10.13;;
40459;SDS011;26164;51.138;16.952;2023-01-19T07:22:22;18.90;;;10.63;;
40459;SDS011;26164;51.138;16.952;2023-01-19T07:24:47;18.35;;;10.02;;
40459;SDS011;26164;51.138;16.952;2023-01-19T07:27:13;18.10;;;9.63;;
40459;SDS011;26164;51.138;16.952;2023-01-19T07:29:40;19.33;;;9.02;;
40459;SDS011;26164;51.138;16.952;2023-01-19T07:32:06;19.35;;;9.85;;
40459;SDS011;26164;51.138;16.952;2023-01-19T07:34:32;17.58;;;9.38;;
40459;SDS011;26164;51.138;16.952;2023-01-19T07:36:59;17.67;;;7.45;;
40459;SDS011;26164;51.138;16.952;2023-01-19T07:39:25;24.42;;;12.00;;
40459;SDS011;26164;51.138;16.952;2023-01-19T07:41:50;26.75;;;12.80;;
40459;SDS011;26164;51.138;16.952;2023-01-19T07:44:17;25.77;;;13.32;;
40459;SDS011;26164;51.138;16.952;2023-01-19T07:46:43;24.50;;;12.57;;
40459;SDS011;26164;51.138;16.952;2023-01-19T07:49:08;19.50;;;11.05;;
40459;SDS011;26164;51.138;16.952;2023-01-19T07:51:34;21.55;;;11.23;;
40459;SDS011;26164;51.138;16.952;2023-01-19T07:54:02;20.42;;;12.07;;
40459;SDS011;26164;51.138;16.952;2023-01-19T07:56:29;20.77;;;10.82;;
40459;SDS011;26164;51.138;16.952;2023-01-19T07:58:57;19.88;;;11.13;;
40459;SDS011;26164;51.138;16.952;2023-01-19T08:01:23;28.88;;;11.65;;
40459;SDS011;26164;51.138;16.952;2023-01-19T08:03:48;21.92;;;10.25;;
40459;SDS011;26164;51.138;16.952;2023-01-19T08:06:21;19.85;;;10.48;;
40459;SDS011;26164;51.138;16.952;2023-01-19T08:08:55;18.58;;;9.43;;
40459;SDS011;26164;51.138;16.952;2023-01-19T08:11:20;19.33;;;10.82;;
40459;SDS011;26164;51.138;16.952;2023-01-19T08:13:47;21.67;;;11.23;;
40459;SDS011;26164;51.138;16.952;2023-01-19T08:16:12;21.45;;;11.70;;
40459;SDS011;26164;51.138;16.952;2023-01-19T08:18:38;24.55;;;11.57;;
40459;SDS011;26164;51.138;16.952;2023-01-19T08:21:04;23.20;;;12.02;;
40459;SDS011;26164;51.138;16.952;2023-01-19T08:23:30;34.28;;;13.98;;
40459;SDS011;26164;51.138;16.952;2023-01-19T08:25:56;28.23;;;13.95;;
40459;SDS011;26164;51.138;16.952;2023-01-19T08:28:22;27.52;;;14.80;;
40459;SDS011;26164;51.138;16.952;2023-01-19T08:30:47;30.27;;;14.07;;
40459;SDS011;26164;51.138;16.952;2023-01-19T08:33:19;28.67;;;14.00;;
40459;SDS011;26164;51.138;16.952;2023-01-19T08:35:46;29.60;;;15.35;;
40459;SDS011;26164;51.138;16.952;2023-01-19T08:38:13;28.25;;;13.23;;
40459;SDS011;26164;51.138;16.952;2023-01-19T08:40:39;24.17;;;13.95;;
40459;SDS011;26164;51.138;16.952;2023-01-19T08:43:07;27.52;;;14.57;;
40459;SDS011;26164;51.138;16.952;2023-01-19T08:45:35;23.65;;;13.35;;
40459;SDS011;26164;51.138;16.952;2023-01-19T08:48:02;29.58;;;15.05;;
40459;SDS011;26164;51.138;16.952;2023-01-19T08:50:30;23.80;;;13.07;;
40459;SDS011;26164;51.138;16.952;2023-01-19T08:52:57;30.38;;;14.43;;
40459;SDS011;26164;51.138;16.952;2023-01-19T08:55:25;28.30;;;13.77;;
40459;SDS011;26164;51.138;16.952;2023-01-19T08:57:52;28.38;;;13.40;;
40459;SDS011;26164;51.138;16.952;2023-01-19T09:00:19;27.95;;;12.50;;
40459;SDS011;26164;51.138;16.952;2023-01-19T09:02:45;26.60;;;13.10;;
40459;SDS011;26164;51.138;16.952;2023-01-19T09:05:11;25.13;;;13.07;;
40459;SDS011;26164;51.138;16.952;2023-01-19T09:07:37;27.35;;;12.55;;
40459;SDS011;26164;51.138;16.952;2023-01-19T09:10:03;26.48;;;13.38;;
40459;SDS011;26164;51.138;16.952;2023-01-19T09:12:31;22.38;;;12.23;;
40459;SDS011;26164;51.138;16.952;2023-01-19T09:14:57;30.52;;;12.95;;
40459;SDS011;26164;51.138;16.952;2023-01-19T09:17:23;20.80;;;9.43;;
40459;SDS011;26164;51.138;16.952;2023-01-19T09:19:48;19.95;;;10.43;;
40459;SDS011;26164;51.138;16.952;2023-01-19T09:22:14;23.67;;;11.25;;
40459;SDS011;26164;51.138;16.952;2023-01-19T09:24:40;22.15;;;11.40;;
40459;SDS011;26164;51.138;16.952;2023-01-19T09:27:06;22.52;;;10.77;;
40459;SDS011;26164;51.138;16.952;2023-01-19T09:29:32;16.38;;;9.00;;
40459;SDS011;26164;51.138;16.952;2023-01-19T09:31:58;24.30;;;10.52;;
40459;SDS011;26164;51.138;16.952;2023-01-19T09:34:24;20.77;;;10.63;;
40459;SDS011;26164;51.138;16.952;2023-01-19T09:36:50;18.33;;;9.13;;
40459;SDS011;26164;51.138;16.952;2023-01-19T09:39:18;20.73;;;9.73;;
40459;SDS011;26164;51.138;16.952;2023-01-19T09:41:55;18.83;;;9.65;;
40459;SDS011;26164;51.138;16.952;2023-01-19T09:44:36;20.15;;;9.32;;
40459;SDS011;26164;51.138;16.952;2023-01-19T09:47:02;18.33;;;7.93;;
40459;SDS011;26164;51.138;16.952;2023-01-19T09:49:41;20.33;;;8.40;;
40459;SDS011;26164;51.138;16.952;2023-01-19T09:52:13;17.98;;;9.10;;
40459;SDS011;26164;51.138;16.952;2023-01-19T09:57:20;17.08;;;7.90;;
40459;SDS011;26164;51.138;16.952;2023-01-19T09:59:49;17.63;;;7.93;;
40459;SDS011;26164;51.138;16.952;2023-01-19T10:10:23;14.07;;;7.80;;
40459;SDS011;26164;51.138;16.952;2023-01-19T10:18:36;15.57;;;7.72;;
40459;SDS011;26164;51.138;16.952;2023-01-19T10:21:02;14.73;;;7.57;;
40459;SDS011;26164;51.138;16.952;2023-01-19T10:26:46;13.70;;;7.18;;
40459;SDS011;26164;51.138;16.952;2023-01-19T10:29:21;12.90;;;6.53;;
40459;SDS011;26164;51.138;16.952;2023-01-19T10:31:51;16.25;;;6.60;;
40459;SDS011;26164;51.138;16.952;2023-01-19T10:34:28;13.18;;;5.95;;
40459;SDS011;26164;51.138;16.952;2023-01-19T10:36:56;20.30;;;6.57;;
40459;SDS011;26164;51.138;16.952;2023-01-19T10:41:54;19.55;;;8.13;;
40459;SDS011;26164;51.138;16.952;2023-01-19T10:44:27;15.55;;;6.53;;
40459;SDS011;26164;51.138;16.952;2023-01-19T10:46:56;14.15;;;6.00;;
40459;SDS011;26164;51.138;16.952;2023-01-19T10:49:26;19.83;;;7.05;;
40459;SDS011;26164;51.138;16.952;2023-01-19T10:51:54;14.80;;;6.78;;
40459;SDS011;26164;51.138;16.952;2023-01-19T10:54:21;19.83;;;6.80;;
40459;SDS011;26164;51.138;16.952;2023-01-19T10:56:58;15.02;;;6.93;;
40459;SDS011;26164;51.138;16.952;2023-01-19T10:59:30;16.17;;;6.35;;
40459;SDS011;26164;51.138;16.952;2023-01-19T11:02:21;16.58;;;6.57;;
40459;SDS011;26164;51.138;16.952;2023-01-19T11:05:01;14.55;;;5.65;;
40459;SDS011;26164;51.138;16.952;2023-01-19T11:07:47;12.50;;;6.00;;
40459;SDS011;26164;51.138;16.952;2023-01-19T11:15:33;12.45;;;5.90;;
40459;SDS011;26164;51.138;16.952;2023-01-19T11:18:03;15.45;;;5.85;;
40459;SDS011;26164;51.138;16.952;2023-01-19T11:20:37;10.45;;;5.25;;
40459;SDS011;26164;51.138;16.952;2023-01-19T11:23:17;11.23;;;5.38;;
40459;SDS011;26164;51.138;16.952;2023-01-19T11:25:49;11.77;;;5.43;;
40459;SDS011;26164;51.138;16.952;2023-01-19T11:28:35;14.13;;;6.38;;
40459;SDS011;26164;51.138;16.952;2023-01-19T11:38:58;13.48;;;5.72;;
40459;SDS011;26164;51.138;16.952;2023-01-19T11:42:00;15.13;;;6.00;;
40459;SDS011;26164;51.138;16.952;2023-01-19T11:45:11;14.18;;;5.50;;
40459;SDS011;26164;51.138;16.952;2023-01-19T11:47:53;12.05;;;5.68;;
40459;SDS011;26164;51.138;16.952;2023-01-19T11:53:29;13.07;;;6.05;;
40459;SDS011;26164;51.138;16.952;2023-01-19T11:58:29;14.02;;;6.20;;
40459;SDS011;26164;51.138;16.952;2023-01-19T12:03:29;12.25;;;5.65;;
40459;SDS011;26164;51.138;16.952;2023-01-19T12:06:09;15.20;;;6.35;;
40459;SDS011;26164;51.138;16.952;2023-01-19T12:08:49;12.10;;;6.18;;
40459;SDS011;26164;51.138;16.952;2023-01-19T12:16:58;16.35;;;7.05;;
40459;SDS011;26164;51.138;16.952;2023-01-19T12:20:12;14.43;;;6.60;;
40459;SDS011;26164;51.138;16.952;2023-01-19T12:22:20;13.95;;;6.50;;
40459;SDS011;26164;51.138;16.952;2023-01-19T12:24:50;14.98;;;7.03;;
40459;SDS011;26164;51.138;16.952;2023-01-19T12:30:00;12.57;;;5.70;;
40459;SDS011;26164;51.138;16.952;2023-01-19T12:32:33;13.88;;;6.45;;
40459;SDS011;26164;51.138;16.952;2023-01-19T12:35:01;13.23;;;5.75;;
40459;SDS011;26164;51.138;16.952;2023-01-19T12:45:28;11.45;;;5.43;;
40459;SDS011;26164;51.138;16.952;2023-01-19T12:47:57;13.25;;;5.22;;
40459;SDS011;26164;51.138;16.952;2023-01-19T12:50:22;12.25;;;5.35;;
40459;SDS011;26164;51.138;16.952;2023-01-19T12:52:54;9.27;;;4.80;;
40459;SDS011;26164;51.138;16.952;2023-01-19T12:55:24;10.32;;;5.05;;
40459;SDS011;26164;51.138;16.952;2023-01-19T12:58:03;14.25;;;5.32;;
40459;SDS011;26164;51.138;16.952;2023-01-19T13:00:39;11.63;;;5.18;;
40459;SDS011;26164;51.138;16.952;2023-01-19T13:10:51;12.15;;;5.07;;
40459;SDS011;26164;51.138;16.952;2023-01-19T13:13:44;10.70;;;4.88;;
40459;SDS011;26164;51.138;16.952;2023-01-19T13:18:43;7.75;;;3.50;;
40459;SDS011;26164;51.138;16.952;2023-01-19T13:24:13;12.05;;;3.85;;
40459;SDS011;26164;51.138;16.952;2023-01-19T13:29:27;7.22;;;3.70;;
40459;SDS011;26164;51.138;16.952;2023-01-19T13:31:59;8.68;;;3.28;;
40459;SDS011;26164;51.138;16.952;2023-01-19T13:34:29;7.18;;;3.13;;
40459;SDS011;26164;51.138;16.952;2023-01-19T13:37:25;9.15;;;3.58;;
40459;SDS011;26164;51.138;16.952;2023-01-19T13:39:58;10.45;;;3.50;;
40459;SDS011;26164;51.138;16.952;2023-01-19T13:42:28;8.93;;;3.53;;
40459;SDS011;26164;51.138;16.952;2023-01-19T13:44:58;8.48;;;3.67;;
40459;SDS011;26164;51.138;16.952;2023-01-19T13:47:47;8.75;;;3.90;;
40459;SDS011;26164;51.138;16.952;2023-01-19T13:50:18;9.63;;;4.05;;
40459;SDS011;26164;51.138;16.952;2023-01-19T13:52:45;7.30;;;3.67;;
40459;SDS011;26164;51.138;16.952;2023-01-19T13:55:14;7.10;;;3.47;;
40459;SDS011;26164;51.138;16.952;2023-01-19T13:57:41;9.85;;;3.67;;
40459;SDS011;26164;51.138;16.952;2023-01-19T14:05:37;8.23;;;3.50;;
40459;SDS011;26164;51.138;16.952;2023-01-19T14:10:33;10.98;;;3.53;;
40459;SDS011;26164;51.138;16.952;2023-01-19T14:13:01;7.55;;;3.90;;
40459;SDS011;26164;51.138;16.952;2023-01-19T14:15:30;9.82;;;4.15;;
40459;SDS011;26164;51.138;16.952;2023-01-19T14:31:51;7.93;;;4.03;;
40459;SDS011;26164;51.138;16.952;2023-01-19T14:36:55;11.93;;;4.53;;
40459;SDS011;26164;51.138;16.952;2023-01-19T14:39:22;9.20;;;5.55;;
40459;SDS011;26164;51.138;16.952;2023-01-19T14:41:50;9.98;;;5.03;;
40459;SDS011;26164;51.138;16.952;2023-01-19T14:46:54;13.07;;;4.47;;
40459;SDS011;26164;51.138;16.952;2023-01-19T14:49:27;10.32;;;4.85;;
40459;SDS011;26164;51.138;16.952;2023-01-19T14:51:53;9.35;;;4.35;;
40459;SDS011;26164;51.138;16.952;2023-01-19T14:54:23;11.20;;;4.35;;
40459;SDS011;26164;51.138;16.952;2023-01-19T14:56:58;9.25;;;3.75;;
40459;SDS011;26164;51.138;16.952;2023-01-19T14:59:35;10.25;;;4.03;;
40459;SDS011;26164;51.138;16.952;2023-01-19T15:02:24;21.73;;;7.68;;
40459;SDS011;26164;51.138;16.952;2023-01-19T15:05:24;11.70;;;5.25;;
40459;SDS011;26164;51.138;16.952;2023-01-19T15:08:34;12.02;;;4.93;;
40459;SDS011;26164;51.138;16.952;2023-01-19T15:12:10;16.02;;;6.10;;
40459;SDS011;26164;51.138;16.952;2023-01-19T15:19:59;11.00;;;4.07;;
40459;SDS011;26164;51.138;16.952;2023-01-19T15:26:26;17.10;;;4.57;;
40459;SDS011;26164;51.138;16.952;2023-01-19T15:28:52;16.88;;;4.90;;
40459;SDS011;26164;51.138;16.952;2023-01-19T15:31:21;18.10;;;5.53;;
40459;SDS011;26164;51.138;16.952;2023-01-19T15:33:48;20.85;;;4.90;;
40459;SDS011;26164;51.138;16.952;2023-01-19T15:36:15;17.17;;;5.43;;
40459;SDS011;26164;51.138;16.952;2023-01-19T15:38:42;15.48;;;5.70;;
40459;SDS011;26164;51.138;16.952;2023-01-19T15:41:12;17.52;;;6.40;;
40459;SDS011;26164;51.138;16.952;2023-01-19T15:43:42;24.92;;;9.35;;
40459;SDS011;26164;51.138;16.952;2023-01-19T15:46:14;25.13;;;9.65;;
40459;SDS011;26164;51.138;16.952;2023-01-19T15:49:01;31.25;;;11.75;;
40459;SDS011;26164;51.138;16.952;2023-01-19T15:52:03;31.50;;;9.85;;
40459;SDS011;26164;51.138;16.952;2023-01-19T15:55:21;31.90;;;11.68;;
40459;SDS011;26164;51.138;16.952;2023-01-19T15:58:03;27.85;;;10.93;;
40459;SDS011;26164;51.138;16.952;2023-01-19T16:04:31;41.53;;;12.15;;
40459;SDS011;26164;51.138;16.952;2023-01-19T16:07:00;35.00;;;12.35;;
40459;SDS011;26164;51.138;16.952;2023-01-19T16:16:51;38.13;;;11.52;;
40459;SDS011;26164;51.138;16.952;2023-01-19T16:19:17;37.55;;;12.10;;
40459;SDS011;26164;51.138;16.952;2023-01-19T16:21:43;38.42;;;12.48;;
40459;SDS011;26164;51.138;16.952;2023-01-19T16:24:17;34.47;;;12.93;;
40459;SDS011;26164;51.138;16.952;2023-01-19T16:26:54;33.78;;;13.27;;
40459;SDS011;26164;51.138;16.952;2023-01-19T16:29:34;31.27;;;12.60;;
40459;SDS011;26164;51.138;16.952;2023-01-19T16:36:15;34.33;;;10.93;;
40459;SDS011;26164;51.138;16.952;2023-01-19T16:40:17;37.13;;;12.65;;
40459;SDS011;26164;51.138;16.952;2023-01-19T16:51:44;103.82;;;32.55;;
40459;SDS011;26164;51.138;16.952;2023-01-19T16:54:41;76.57;;;26.42;;
40459;SDS011;26164;51.138;16.952;2023-01-19T17:44:54;31.20;;;14.48;;
40459;SDS011;26164;51.138;16.952;2023-01-19T17:47:28;33.40;;;13.68;;
40459;SDS011;26164;51.138;16.952;2023-01-19T17:49:54;35.70;;;14.27;;
40459;SDS011;26164;51.138;16.952;2023-01-19T17:52:28;37.72;;;15.70;;
40459;SDS011;26164;51.138;16.952;2023-01-19T17:55:18;43.03;;;17.20;;
40459;SDS011;26164;51.138;16.952;2023-01-19T17:57:51;41.95;;;16.95;;
40459;SDS011;26164;51.138;16.952;2023-01-19T18:00:43;41.13;;;18.17;;
40459;SDS011;26164;51.138;16.952;2023-01-19T18:03:31;34.55;;;15.88;;
40459;SDS011;26164;51.138;16.952;2023-01-19T18:05:56;41.00;;;17.10;;
40459;SDS011;26164;51.138;16.952;2023-01-19T18:08:23;40.95;;;15.65;;
40459;SDS011;26164;51.138;16.952;2023-01-19T18:10:53;33.38;;;14.77;;
40459;SDS011;26164;51.138;16.952;2023-01-19T18:13:23;38.47;;;16.95;;
40459;SDS011;26164;51.138;16.952;2023-01-19T18:15:48;36.00;;;14.93;;
40459;SDS011;26164;51.138;16.952;2023-01-19T18:18:15;26.83;;;12.55;;
40459;SDS011;26164;51.138;16.952;2023-01-19T18:20:41;31.33;;;13.45;;
40459;SDS011;26164;51.138;16.952;2023-01-19T18:23:09;28.75;;;11.98;;
40459;SDS011;26164;51.138;16.952;2023-01-19T18:25:37;32.05;;;14.02;;
40459;SDS011;26164;51.138;16.952;2023-01-19T18:28:05;27.90;;;12.38;;
40459;SDS011;26164;51.138;16.952;2023-01-19T18:30:35;33.65;;;13.50;;
40459;SDS011;26164;51.138;16.952;2023-01-19T18:33:04;30.13;;;13.07;;
40459;SDS011;26164;51.138;16.952;2023-01-19T18:35:30;20.17;;;9.25;;
40459;SDS011;26164;51.138;16.952;2023-01-19T18:37:57;19.17;;;9.18;;
40459;SDS011;26164;51.138;16.952;2023-01-19T18:40:23;21.95;;;8.93;;
40459;SDS011;26164;51.138;16.952;2023-01-19T18:42:50;18.58;;;8.48;;
40459;SDS011;26164;51.138;16.952;2023-01-19T18:45:18;19.83;;;8.85;;
40459;SDS011;26164;51.138;16.952;2023-01-19T18:47:44;18.83;;;8.05;;
40459;SDS011;26164;51.138;16.952;2023-01-19T18:50:10;19.08;;;8.25;;
40459;SDS011;26164;51.138;16.952;2023-01-19T18:52:38;22.92;;;8.77;;
40459;SDS011;26164;51.138;16.952;2023-01-19T18:55:04;23.70;;;9.27;;
40459;SDS011;26164;51.138;16.952;2023-01-19T18:57:33;20.83;;;9.75;;
40459;SDS011;26164;51.138;16.952;2023-01-19T19:00:00;27.27;;;12.02;;
40459;SDS011;26164;51.138;16.952;2023-01-19T19:02:28;21.90;;;10.30;;
40459;SDS011;26164;51.138;16.952;2023-01-19T19:04:54;30.67;;;13.63;;
40459;SDS011;26164;51.138;16.952;2023-01-19T19:07:20;32.30;;;13.25;;
40459;SDS011;26164;51.138;16.952;2023-01-19T19:09:49;34.60;;;14.13;;
40459;SDS011;26164;51.138;16.952;2023-01-19T19:12:15;35.28;;;14.85;;
40459;SDS011;26164;51.138;16.952;2023-01-19T19:14:40;32.00;;;14.68;;
40459;SDS011;26164;51.138;16.952;2023-01-19T19:17:09;47.55;;;19.67;;
40459;SDS011;26164;51.138;16.952;2023-01-19T19:19:35;142.55;;;46.25;;
40459;SDS011;26164;51.138;16.952;2023-01-19T19:22:01;128.20;;;42.28;;
40459;SDS011;26164;51.138;16.952;2023-01-19T19:24:26;137.30;;;45.05;;
40459;SDS011;26164;51.138;16.952;2023-01-19T19:26:52;168.57;;;59.58;;
40459;SDS011;26164;51.138;16.952;2023-01-19T19:29:22;159.98;;;56.05;;
40459;SDS011;26164;51.138;16.952;2023-01-19T19:31:52;141.68;;;55.78;;
40459;SDS011;26164;51.138;16.952;2023-01-19T19:34:17;140.23;;;53.50;;
40459;SDS011;26164;51.138;16.952;2023-01-19T19:36:45;110.22;;;42.33;;
40459;SDS011;26164;51.138;16.952;2023-01-19T19:39:11;98.72;;;38.15;;
40459;SDS011;26164;51.138;16.952;2023-01-19T19:41:37;101.88;;;39.60;;
40459;SDS011;26164;51.138;16.952;2023-01-19T19:44:03;111.93;;;40.17;;
40459;SDS011;26164;51.138;16.952;2023-01-19T19:46:48;92.30;;;36.05;;
40459;SDS011;26164;51.138;16.952;2023-01-19T19:49:17;72.82;;;30.27;;
40459;SDS011;26164;51.138;16.952;2023-01-19T19:51:46;76.18;;;31.02;;
40459;SDS011;26164;51.138;16.952;2023-01-19T19:54:16;75.15;;;29.42;;
40459;SDS011;26164;51.138;16.952;2023-01-19T19:56:43;77.85;;;30.65;;
40459;SDS011;26164;51.138;16.952;2023-01-19T19:59:11;81.30;;;32.13;;
40459;SDS011;26164;51.138;16.952;2023-01-19T20:01:39;77.35;;;31.10;;
40459;SDS011;26164;51.138;16.952;2023-01-19T20:04:14;98.38;;;35.75;;
40459;SDS011;26164;51.138;16.952;2023-01-19T20:06:44;93.82;;;35.58;;
40459;SDS011;26164;51.138;16.952;2023-01-19T20:09:12;84.32;;;32.33;;
40459;SDS011;26164;51.138;16.952;2023-01-19T20:11:43;89.38;;;33.58;;
40459;SDS011;26164;51.138;16.952;2023-01-19T20:14:11;102.20;;;36.30;;
40459;SDS011;26164;51.138;16.952;2023-01-19T20:16:38;90.63;;;34.88;;
40459;SDS011;26164;51.138;16.952;2023-01-19T20:19:04;81.10;;;32.85;;
40459;SDS011;26164;51.138;16.952;2023-01-19T20:21:31;89.38;;;31.65;;
40459;SDS011;26164;51.138;16.952;2023-01-19T20:24:03;68.90;;;28.90;;
40459;SDS011;26164;51.138;16.952;2023-01-19T20:26:32;72.85;;;29.23;;
40459;SDS011;26164;51.138;16.952;2023-01-19T20:29:00;74.13;;;28.60;;
40459;SDS011;26164;51.138;16.952;2023-01-19T20:31:41;57.92;;;23.55;;
40459;SDS011;26164;51.138;16.952;2023-01-19T20:34:17;72.57;;;27.35;;
40459;SDS011;26164;51.138;16.952;2023-01-19T20:36:49;78.25;;;31.27;;
40459;SDS011;26164;51.138;16.952;2023-01-19T20:39:17;97.15;;;34.88;;
40459;SDS011;26164;51.138;16.952;2023-01-19T20:42:28;100.78;;;37.03;;
40459;SDS011;26164;51.138;16.952;2023-01-19T20:45:04;87.57;;;35.38;;
40459;SDS011;26164;51.138;16.952;2023-01-19T20:47:31;90.05;;;36.42;;
40459;SDS011;26164;51.138;16.952;2023-01-19T20:49:57;88.55;;;35.90;;
40459;SDS011;26164;51.138;16.952;2023-01-19T20:52:22;81.78;;;32.90;;
40459;SDS011;26164;51.138;16.952;2023-01-19T20:54:48;86.90;;;34.60;;
40459;SDS011;26164;51.138;16.952;2023-01-19T20:57:16;84.95;;;33.97;;
40459;SDS011;26164;51.138;16.952;2023-01-19T20:59:44;79.90;;;31.73;;
40459;SDS011;26164;51.138;16.952;2023-01-19T21:02:10;77.90;;;33.30;;
40459;SDS011;26164;51.138;16.952;2023-01-19T21:04:51;84.15;;;32.95;;
40459;SDS011;26164;51.138;16.952;2023-01-19T21:07:19;92.35;;;34.17;;
40459;SDS011;26164;51.138;16.952;2023-01-19T21:09:47;88.45;;;34.25;;
40459;SDS011;26164;51.138;16.952;2023-01-19T21:12:15;87.15;;;34.85;;
40459;SDS011;26164;51.138;16.952;2023-01-19T21:14:41;89.03;;;35.13;;
40459;SDS011;26164;51.138;16.952;2023-01-19T21:17:09;87.57;;;32.28;;
40459;SDS011;26164;51.138;16.952;2023-01-19T21:19:41;93.15;;;36.67;;
40459;SDS011;26164;51.138;16.952;2023-01-19T21:22:06;77.28;;;32.30;;
40459;SDS011;26164;51.138;16.952;2023-01-19T21:24:34;83.28;;;31.90;;
40459;SDS011;26164;51.138;16.952;2023-01-19T21:27:00;78.53;;;31.20;;
40459;SDS011;26164;51.138;16.952;2023-01-19T21:29:26;89.22;;;31.67;;
40459;SDS011;26164;51.138;16.952;2023-01-19T21:31:54;94.63;;;34.03;;
40459;SDS011;26164;51.138;16.952;2023-01-19T21:34:21;81.00;;;33.78;;
40459;SDS011;26164;51.138;16.952;2023-01-19T21:36:47;91.63;;;33.08;;
40459;SDS011;26164;51.138;16.952;2023-01-19T21:39:14;76.47;;;31.00;;
40459;SDS011;26164;51.138;16.952;2023-01-19T21:41:41;84.80;;;32.95;;
40459;SDS011;26164;51.138;16.952;2023-01-19T21:44:09;85.68;;;32.63;;
40459;SDS011;26164;51.138;16.952;2023-01-19T21:46:40;79.25;;;32.75;;
40459;SDS011;26164;51.138;16.952;2023-01-19T21:49:07;87.75;;;33.33;;
40459;SDS011;26164;51.138;16.952;2023-01-19T21:51:37;90.80;;;35.97;;
40459;SDS011;26164;51.138;16.952;2023-01-19T21:54:05;92.40;;;36.38;;
40459;SDS011;26164;51.138;16.952;2023-01-19T21:56:31;92.20;;;35.80;;
40459;SDS011;26164;51.138;16.952;2023-01-19T21:58:58;101.53;;;39.17;;
40459;SDS011;26164;51.138;16.952;2023-01-19T22:01:27;105.18;;;41.75;;
40459;SDS011;26164;51.138;16.952;2023-01-19T22:03:57;114.10;;;44.38;;
40459;SDS011;26164;51.138;16.952;2023-01-19T22:06:24;112.47;;;42.40;;
40459;SDS011;26164;51.138;16.952;2023-01-19T22:08:51;108.68;;;41.65;;
40459;SDS011;26164;51.138;16.952;2023-01-19T22:11:18;122.03;;;46.17;;
40459;SDS011;26164;51.138;16.952;2023-01-19T22:13:46;121.68;;;47.50;;
40459;SDS011;26164;51.138;16.952;2023-01-19T22:16:16;135.20;;;52.30;;
40459;SDS011;26164;51.138;16.952;2023-01-19T22:18:45;130.05;;;48.38;;
40459;SDS011;26164;51.138;16.952;2023-01-19T22:21:16;125.10;;;43.75;;
40459;SDS011;26164;51.138;16.952;2023-01-19T22:23:49;116.20;;;43.60;;
40459;SDS011;26164;51.138;16.952;2023-01-19T22:26:15;115.70;;;43.55;;
40459;SDS011;26164;51.138;16.952;2023-01-19T22:28:42;108.68;;;41.17;;
40459;SDS011;26164;51.138;16.952;2023-01-19T22:31:10;103.97;;;40.25;;
40459;SDS011;26164;51.138;16.952;2023-01-19T22:33:38;111.13;;;39.97;;
40459;SDS011;26164;51.138;16.952;2023-01-19T22:36:24;94.28;;;39.50;;
40459;SDS011;26164;51.138;16.952;2023-01-19T22:38:53;113.13;;;42.20;;
40459;SDS011;26164;51.138;16.952;2023-01-19T22:41:23;109.95;;;42.22;;
40459;SDS011;26164;51.138;16.952;2023-01-19T22:43:55;97.90;;;39.47;;
40459;SDS011;26164;51.138;16.952;2023-01-19T22:46:23;95.03;;;39.03;;
40459;SDS011;26164;51.138;16.952;2023-01-19T22:48:51;99.00;;;39.25;;
40459;SDS011;26164;51.138;16.952;2023-01-19T22:51:19;103.43;;;42.05;;
40459;SDS011;26164;51.138;16.952;2023-01-19T22:53:46;105.35;;;42.42;;
40459;SDS011;26164;51.138;16.952;2023-01-19T22:56:21;109.40;;;44.97;;
40459;SDS011;26164;51.138;16.952;2023-01-19T22:59:05;106.88;;;43.80;;
40459;SDS011;26164;51.138;16.952;2023-01-19T23:01:33;115.90;;;47.08;;
40459;SDS011;26164;51.138;16.952;2023-01-19T23:04:01;123.80;;;48.28;;
40459;SDS011;26164;51.138;16.952;2023-01-19T23:06:30;121.43;;;48.22;;
40459;SDS011;26164;51.138;16.952;2023-01-19T23:09:01;111.82;;;47.08;;
40459;SDS011;26164;51.138;16.952;2023-01-19T23:11:34;112.65;;;46.33;;
40459;SDS011;26164;51.138;16.952;2023-01-19T23:14:01;113.82;;;46.10;;
40459;SDS011;26164;51.138;16.952;2023-01-19T23:16:30;120.25;;;46.33;;
40459;SDS011;26164;51.138;16.952;2023-01-19T23:18:56;110.30;;;45.38;;
40459;SDS011;26164;51.138;16.952;2023-01-19T23:21:23;107.38;;;43.88;;
40459;SDS011;26164;51.138;16.952;2023-01-19T23:23:57;103.65;;;43.33;;
40459;SDS011;26164;51.138;16.952;2023-01-19T23:26:25;106.25;;;42.25;;
40459;SDS011;26164;51.138;16.952;2023-01-19T23:28:55;119.03;;;44.60;;
40459;SDS011;26164;51.138;16.952;2023-01-19T23:31:26;104.68;;;42.30;;
40459;SDS011;26164;51.138;16.952;2023-01-19T23:33:57;104.38;;;42.42;;
40459;SDS011;26164;51.138;16.952;2023-01-19T23:36:33;110.00;;;40.83;;
40459;SDS011;26164;51.138;16.952;2023-01-19T23:39:00;102.80;;;40.35;;
40459;SDS011;26164;51.138;16.952;2023-01-19T23:41:30;105.53;;;41.03;;
40459;SDS011;26164;51.138;16.952;2023-01-19T23:43:57;113.38;;;40.42;;
40459;SDS011;26164;51.138;16.952;2023-01-19T23:46:23;93.88;;;38.67;;
40459;SDS011;26164;51.138;16.952;2023-01-19T23:48:49;102.55;;;40.40;;
40459;SDS011;26164;51.138;16.952;2023-01-19T23:51:19;103.60;;;38.70;;
40459;SDS011;26164;51.138;16.952;2023-01-19T23:53:47;101.22;;;39.70;;
40459;SDS011;26164;51.138;16.952;2023-01-19T23:56:21;112.75;;;43.90;;
40459;SDS011;26164;51.138;16.952;2023-01-19T23:58:53;97.07;;;39.15;;
